Time;durP1;ratioP1;P1;durP2;ratioP2;P2;SDS_P1;SDS_P2;PMS_P1;PMS_P2;Temp;Humidity;BMP_temperature;BMP_pressure;BME280_temperature;BME280_humidity;BME280_pressure;Samples;Min_cycle;Max_cycle;Signal;HPM_P1;HPM_P2
2022/05/29 00:02:07;;;;;;;0.90;0.90;;;11.10;99.90;;;;;;5115933;28;20181;-58
2022/05/29 00:04:33;;;;;;;1.30;0.80;;;11.00;99.90;;;;;;5116067;28;20172;-57
2022/05/29 00:06:59;;;;;;;1.05;0.85;;;10.90;99.90;;;;;;5115742;28;20549;-58
2022/05/29 00:09:32;;;;;;;0.88;0.70;;;11.00;99.90;;;;;;5114505;28;20197;-58
2022/05/29 00:11:59;;;;;;;1.15;0.77;;;11.00;99.90;;;;;;5115885;28;20246;-58
2022/05/29 00:14:25;;;;;;;1.13;0.80;;;10.90;99.90;;;;;;5114589;28;20201;-58
2022/05/29 00:16:51;;;;;;;1.50;0.90;;;10.90;99.90;;;;;;5115801;28;20190;-57
2022/05/29 00:19:17;;;;;;;1.05;0.85;;;10.90;99.90;;;;;;5115618;28;20173;-58
2022/05/29 00:21:42;;;;;;;1.20;0.90;;;10.90;99.90;;;;;;5097412;28;20177;-58
2022/05/29 00:24:09;;;;;;;0.60;0.60;;;10.80;99.90;;;;;;5115681;28;20169;-58
2022/05/29 00:26:35;;;;;;;1.20;1.00;;;10.80;99.90;;;;;;5115657;28;20162;-58
2022/05/29 00:29:00;;;;;;;2.10;0.90;;;10.80;99.90;;;;;;5114677;28;20614;-58
2022/05/29 00:31:26;;;;;;;1.67;0.80;;;10.80;99.90;;;;;;5114330;28;20606;-58
2022/05/29 00:33:52;;;;;;;0.90;0.63;;;10.90;99.90;;;;;;5114074;28;20196;-58
2022/05/29 00:36:18;;;;;;;0.70;0.68;;;10.90;99.90;;;;;;5114065;28;20181;-58
2022/05/29 00:38:46;;;;;;;1.15;1.05;;;10.90;99.90;;;;;;5115182;28;20170;-58
2022/05/29 00:41:31;;;;;;;1.88;0.65;;;10.90;99.90;;;;;;5115224;28;20169;-58
2022/05/29 00:44:14;;;;;;;1.85;1.08;;;10.80;99.90;;;;;;5115144;28;20602;-57
2022/05/29 00:46:45;;;;;;;0.95;0.73;;;10.70;99.90;;;;;;5115210;28;20630;-58
2022/05/29 00:49:12;;;;;;;1.38;0.80;;;10.70;99.90;;;;;;5114915;28;20166;-58
2022/05/29 00:51:43;;;;;;;1.10;0.77;;;10.50;99.90;;;;;;5115066;28;20197;-58
2022/05/29 00:54:10;;;;;;;0.85;0.77;;;10.40;99.90;;;;;;5114947;27;20180;-58
2022/05/29 00:56:38;;;;;;;0.77;0.77;;;10.40;99.90;;;;;;5114655;28;20199;-58
2022/05/29 00:59:05;;;;;;;0.93;0.80;;;10.30;99.90;;;;;;5114822;28;20692;-58
2022/05/29 01:01:31;;;;;;;1.00;0.70;;;10.30;99.90;;;;;;5113495;28;20169;-58
2022/05/29 01:03:57;;;;;;;0.70;0.70;;;10.30;99.90;;;;;;5114641;28;20173;-58
2022/05/29 01:06:23;;;;;;;1.17;0.95;;;10.40;99.90;;;;;;5114192;28;20635;-58
2022/05/29 01:08:48;;;;;;;0.70;0.70;;;10.40;99.90;;;;;;5114544;28;20564;-58
2022/05/29 01:11:48;;;;;;;0.75;0.60;;;10.40;99.90;;;;;;5113426;28;20197;-58
2022/05/29 01:14:36;;;;;;;0.80;0.80;;;10.50;99.90;;;;;;5114754;28;20184;-58
2022/05/29 01:17:15;;;;;;;1.60;0.93;;;10.60;99.90;;;;;;5114542;28;20510;-58
2022/05/29 01:20:08;;;;;;;0.98;0.80;;;10.60;99.90;;;;;;5114611;28;20169;-58
2022/05/29 01:22:34;;;;;;;2.08;0.82;;;10.50;99.90;;;;;;5114346;28;20763;-59
2022/05/29 01:25:31;;;;;;;1.33;0.60;;;10.50;99.90;;;;;;5114807;28;20551;-59
2022/05/29 01:28:05;;;;;;;2.05;0.60;;;10.50;99.90;;;;;;5090695;28;20204;-58
2022/05/29 01:30:45;;;;;;;0.60;0.60;;;10.30;99.90;;;;;;5114133;28;20224;-58
2022/05/29 01:33:45;;;;;;;0.52;0.52;;;10.10;99.90;;;;;;5114635;28;20161;-59
2022/05/29 01:36:41;;;;;;;0.47;0.47;;;10.10;99.90;;;;;;5114333;28;20686;-59
2022/05/29 01:39:15;;;;;;;0.70;0.60;;;10.10;99.90;;;;;;5114072;28;20165;-58
2022/05/29 01:41:58;;;;;;;0.65;0.60;;;10.00;99.90;;;;;;5114346;28;20173;-58
2022/05/29 01:44:36;;;;;;;1.17;0.80;;;9.90;99.90;;;;;;5114207;28;20239;-58
2022/05/29 01:47:17;;;;;;;0.50;0.50;;;9.90;99.90;;;;;;5114007;28;20702;-59
2022/05/29 01:49:51;;;;;;;0.60;0.60;;;10.00;99.90;;;;;;5113894;28;20183;-58
2022/05/29 01:52:32;;;;;;;1.83;0.60;;;10.00;99.90;;;;;;5113983;28;20205;-58
2022/05/29 01:55:29;;;;;;;0.65;0.60;;;10.10;99.90;;;;;;5113646;28;20213;-61
2022/05/29 01:58:04;;;;;;;0.50;0.50;;;10.20;99.90;;;;;;5113760;28;20643;-58
2022/05/29 02:00:31;;;;;;;1.98;0.70;;;10.10;99.90;;;;;;5114008;28;20242;-58
2022/05/29 02:03:08;;;;;;;0.80;0.80;;;10.20;99.90;;;;;;5113919;28;20629;-58
2022/05/29 02:06:07;;;;;;;1.38;0.52;;;10.20;99.90;;;;;;5113950;28;20165;-58
2022/05/29 02:08:40;;;;;;;1.10;0.43;;;10.30;99.90;;;;;;5113381;28;20238;-58
2022/05/29 02:11:10;;;;;;;1.77;0.90;;;10.20;99.90;;;;;;5112421;28;20200;-58
2022/05/29 02:13:54;;;;;;;0.70;0.70;;;10.20;99.90;;;;;;5112577;28;20234;-58
2022/05/29 02:16:52;;;;;;;0.63;0.63;;;10.30;99.90;;;;;;5113681;28;20165;-58
2022/05/29 02:19:24;;;;;;;0.70;0.70;;;10.40;99.90;;;;;;5115947;28;20157;-58
2022/05/29 02:21:58;;;;;;;0.68;0.63;;;10.40;99.90;;;;;;5118018;28;20165;-58
2022/05/29 02:24:30;;;;;;;1.55;0.90;;;10.50;99.90;;;;;;5117792;28;20174;-58
2022/05/29 02:27:06;;;;;;;1.35;0.70;;;10.50;99.90;;;;;;5117866;28;20165;-59
2022/05/29 02:29:32;;;;;;;1.00;0.65;;;10.50;99.90;;;;;;5117882;28;20297;-58
2022/05/29 02:32:40;;;;;;;0.63;0.63;;;10.40;99.90;;;;;;5116550;28;20724;-60
2022/05/29 02:35:55;;;;;;;0.80;0.70;;;10.50;99.90;;;;;;5117684;28;20199;-58
2022/05/29 02:38:50;;;;;;;1.30;1.20;;;10.50;99.90;;;;;;5099135;28;20513;-59
2022/05/29 02:41:24;;;;;;;0.73;0.73;;;10.30;99.90;;;;;;5117716;28;20179;-58
2022/05/29 02:44:17;;;;;;;1.58;0.80;;;10.30;99.90;;;;;;5118216;28;20252;-58
2022/05/29 02:47:05;;;;;;;1.30;0.60;;;10.40;99.90;;;;;;5117663;28;20157;-58
2022/05/29 02:49:37;;;;;;;2.28;1.08;;;10.40;99.90;;;;;;5117353;28;20157;-58
2022/05/29 02:52:10;;;;;;;0.73;0.73;;;10.30;99.90;;;;;;5117232;28;20193;-58
2022/05/29 02:54:36;;;;;;;0.60;0.60;;;10.30;99.90;;;;;;5117479;28;20169;-59
2022/05/29 02:57:02;;;;;;;0.70;0.70;;;10.30;99.90;;;;;;5117111;28;20162;-59
2022/05/29 02:59:52;;;;;;;1.55;0.80;;;10.40;99.90;;;;;;5116293;28;20569;-58
2022/05/29 03:02:34;;;;;;;2.30;1.13;;;10.40;99.90;;;;;;5116987;28;20263;-59
2022/05/29 03:05:18;;;;;;;0.88;0.70;;;10.40;99.90;;;;;;5117248;28;20260;-59
2022/05/29 03:08:23;;;;;;;0.82;0.73;;;10.40;99.90;;;;;;5116908;28;20181;-58
2022/05/29 03:10:58;;;;;;;0.80;0.80;;;10.40;99.90;;;;;;5115912;28;20161;-58
2022/05/29 03:13:41;;;;;;;0.70;0.70;;;10.40;99.90;;;;;;5116869;28;20172;-58
2022/05/29 03:16:32;;;;;;;1.60;0.90;;;10.40;99.90;;;;;;5116906;28;20161;-58
2022/05/29 03:19:08;;;;;;;1.40;0.80;;;10.40;99.90;;;;;;5116739;28;20248;-59
2022/05/29 03:21:34;;;;;;;0.80;0.70;;;10.40;99.90;;;;;;5116945;28;20610;-59
2022/05/29 03:24:18;;;;;;;1.83;0.95;;;10.40;99.90;;;;;;5115831;28;20198;-59
2022/05/29 03:26:48;;;;;;;1.48;0.93;;;10.40;99.90;;;;;;5115436;28;20495;-58
2022/05/29 03:29:21;;;;;;;0.70;0.70;;;10.30;99.90;;;;;;5116386;28;20170;-58
2022/05/29 03:31:49;;;;;;;1.38;0.80;;;10.40;99.90;;;;;;5115733;28;20553;-59
2022/05/29 03:34:15;;;;;;;1.48;0.80;;;10.40;99.90;;;;;;5115397;28;20177;-58
2022/05/29 03:36:49;;;;;;;1.02;0.90;;;10.30;99.90;;;;;;5116269;28;20161;-58
2022/05/29 03:39:15;;;;;;;1.20;1.10;;;10.30;99.90;;;;;;5116800;28;20675;-59
2022/05/29 03:41:46;;;;;;;1.25;0.95;;;10.30;99.90;;;;;;5116490;28;20173;-58
2022/05/29 03:44:14;;;;;;;0.90;0.90;;;10.30;99.90;;;;;;5116213;28;20169;-59
2022/05/29 03:46:40;;;;;;;1.52;0.90;;;10.30;99.90;;;;;;5116681;28;20618;-58
2022/05/29 03:49:09;;;;;;;1.30;0.88;;;10.30;99.90;;;;;;5115007;28;20203;-58
2022/05/29 03:51:36;;;;;;;0.90;0.90;;;10.30;99.90;;;;;;5114951;28;20545;-59
2022/05/29 03:54:03;;;;;;;1.13;1.00;;;10.20;99.90;;;;;;5114977;28;20166;-58
2022/05/29 03:56:29;;;;;;;0.73;0.73;;;10.20;99.90;;;;;;5116179;28;20180;-58
2022/05/29 03:58:55;;;;;;;1.42;0.82;;;10.20;99.90;;;;;;5116181;28;20157;-59
2022/05/29 04:01:22;;;;;;;0.85;0.85;;;10.10;99.90;;;;;;5114915;28;20180;-58
2022/05/29 04:03:47;;;;;;;0.82;0.82;;;10.10;99.90;;;;;;5115851;28;20626;-58
2022/05/29 04:06:13;;;;;;;1.15;1.05;;;10.00;99.90;;;;;;5116003;28;20205;-59
2022/05/29 04:14:07;;;;;;;1.08;0.90;;;9.90;99.90;;;;;;5115192;28;20231;-58
2022/05/29 04:16:33;;;;;;;1.45;0.93;;;10.00;99.90;;;;;;5114566;28;20641;-58
2022/05/29 04:18:59;;;;;;;1.55;1.02;;;9.90;99.90;;;;;;5097609;28;20177;-58
2022/05/29 04:21:25;;;;;;;1.00;0.90;;;9.90;99.90;;;;;;5115527;28;20173;-59
2022/05/29 04:23:51;;;;;;;1.92;1.25;;;9.80;99.90;;;;;;5115456;28;20169;-58
2022/05/29 04:26:18;;;;;;;1.08;1.00;;;9.70;99.90;;;;;;5114274;28;20169;-58
2022/05/29 04:28:44;;;;;;;1.05;0.95;;;9.60;99.90;;;;;;5115588;28;20169;-58
2022/05/29 04:31:10;;;;;;;1.30;1.20;;;9.60;99.90;;;;;;5114167;28;20205;-61
2022/05/29 04:33:36;;;;;;;1.10;1.00;;;9.50;99.90;;;;;;5115435;28;20165;-58
2022/05/29 04:36:03;;;;;;;0.80;0.80;;;9.50;99.90;;;;;;5115491;28;20223;-58
2022/05/29 04:38:29;;;;;;;1.00;1.00;;;9.50;99.90;;;;;;5115078;28;20177;-59
2022/05/29 04:40:56;;;;;;;1.30;1.20;;;9.60;99.90;;;;;;5113469;28;20506;-58
2022/05/29 04:43:22;;;;;;;2.45;1.02;;;9.60;99.90;;;;;;5115009;28;20180;-59
2022/05/29 04:45:54;;;;;;;0.98;0.90;;;9.60;99.90;;;;;;5114125;28;20168;-58
2022/05/29 04:48:20;;;;;;;1.52;1.05;;;9.50;99.90;;;;;;5115153;28;20161;-58
2022/05/29 04:50:46;;;;;;;0.73;0.70;;;9.60;99.90;;;;;;5114801;28;20644;-60
2022/05/29 04:53:12;;;;;;;1.00;0.90;;;9.60;99.90;;;;;;5115378;28;20170;-58
2022/05/29 04:55:41;;;;;;;1.08;0.90;;;9.60;99.90;;;;;;5115249;28;20166;-58
2022/05/29 04:58:08;;;;;;;1.52;0.90;;;9.70;99.90;;;;;;5114692;28;20831;-58
2022/05/29 05:00:34;;;;;;;1.48;1.00;;;9.70;99.90;;;;;;5113598;28;20560;-59
2022/05/29 05:03:01;;;;;;;1.65;1.00;;;9.70;99.90;;;;;;5114829;28;20170;-58
2022/05/29 05:05:27;;;;;;;0.85;0.82;;;9.90;99.90;;;;;;5114341;28;20200;-58
2022/05/29 05:07:53;;;;;;;1.27;1.10;;;10.00;99.90;;;;;;5114944;28;20197;-57
2022/05/29 05:10:19;;;;;;;3.45;1.17;;;10.10;99.90;;;;;;5114790;28;20195;-56
2022/05/29 05:12:45;;;;;;;1.15;0.80;;;10.10;99.90;;;;;;5113336;28;20230;-56
2022/05/29 05:15:13;;;;;;;1.65;1.00;;;10.30;99.90;;;;;;5114638;28;20218;-55
2022/05/29 05:17:39;;;;;;;1.23;1.13;;;10.30;99.90;;;;;;5114508;28;20630;-57
2022/05/29 05:20:06;;;;;;;2.05;1.00;;;10.40;99.90;;;;;;5114731;28;20165;-55
2022/05/29 05:22:32;;;;;;;0.90;0.90;;;10.50;99.90;;;;;;5114472;28;20173;-54
2022/05/29 05:24:58;;;;;;;1.00;1.00;;;10.60;99.90;;;;;;5113507;28;20495;-57
2022/05/29 05:27:23;;;;;;;1.17;1.08;;;10.70;99.90;;;;;;5114653;28;20173;-52
2022/05/29 05:29:49;;;;;;;1.60;1.20;;;10.70;99.90;;;;;;5114997;28;20626;-57
2022/05/29 05:32:15;;;;;;;2.25;1.42;;;10.80;99.90;;;;;;5112869;28;20205;-58
2022/05/29 05:34:41;;;;;;;0.90;0.90;;;10.90;99.90;;;;;;5114112;28;20618;-58
2022/05/29 05:37:08;;;;;;;0.90;0.90;;;11.00;99.90;;;;;;5114465;28;20169;-59
2022/05/29 05:39:33;;;;;;;1.20;1.10;;;11.10;99.90;;;;;;5114301;28;20165;-57
2022/05/29 05:41:59;;;;;;;1.85;1.20;;;11.20;99.90;;;;;;5114132;28;20199;-57
2022/05/29 05:44:24;;;;;;;2.03;1.77;;;11.30;99.90;;;;;;5114122;28;20169;-57
2022/05/29 05:46:56;;;;;;;1.65;1.05;;;11.30;99.90;;;;;;5113919;28;20173;-58
2022/05/29 05:49:22;;;;;;;1.17;1.00;;;11.40;99.90;;;;;;5114148;28;20301;-58
2022/05/29 05:51:50;;;;;;;1.35;1.20;;;11.50;99.90;;;;;;5113863;28;20208;-58
2022/05/29 05:54:16;;;;;;;2.08;1.23;;;11.70;99.90;;;;;;5113098;28;20218;-57
2022/05/29 05:56:43;;;;;;;1.60;1.00;;;11.80;99.90;;;;;;5112567;28;20670;-57
2022/05/29 05:59:10;;;;;;;1.15;1.00;;;11.90;99.90;;;;;;5113803;28;20622;-57
2022/05/29 06:01:36;;;;;;;4.78;1.75;;;11.90;99.90;;;;;;5113739;28;20169;-58
2022/05/29 06:04:02;;;;;;;1.70;1.17;;;12.00;99.90;;;;;;5113987;28;20522;-58
2022/05/29 06:06:28;;;;;;;1.10;1.00;;;12.10;99.90;;;;;;5113670;28;20185;-57
2022/05/29 06:08:53;;;;;;;2.20;0.95;;;12.30;99.90;;;;;;5113814;28;20191;-57
2022/05/29 06:11:19;;;;;;;1.58;1.00;;;12.30;99.90;;;;;;5113558;28;20192;-57
2022/05/29 06:13:44;;;;;;;1.63;1.00;;;12.40;99.90;;;;;;5113703;28;20503;-57
2022/05/29 06:16:12;;;;;;;2.25;1.35;;;12.30;99.90;;;;;;5113493;28;20182;-58
2022/05/29 06:18:37;;;;;;;1.83;0.90;;;12.20;99.90;;;;;;5112459;28;20173;-57
2022/05/29 06:21:04;;;;;;;2.15;1.20;;;12.10;99.90;;;;;;5112157;28;20181;-57
2022/05/29 06:23:30;;;;;;;1.10;1.00;;;12.10;99.90;;;;;;5111513;28;20177;-59
2022/05/29 06:25:59;;;;;;;0.73;0.73;;;11.90;99.90;;;;;;5113419;28;20173;-58
2022/05/29 06:28:25;;;;;;;1.58;0.95;;;11.90;99.90;;;;;;5113280;28;20740;-57
2022/05/29 06:30:51;;;;;;;1.35;0.90;;;11.80;99.90;;;;;;5113144;28;20209;-58
2022/05/29 06:33:16;;;;;;;1.95;0.90;;;11.60;99.90;;;;;;5112076;28;20177;-57
2022/05/29 06:35:42;;;;;;;1.55;0.88;;;11.60;99.90;;;;;;5113425;28;20173;-57
2022/05/29 06:38:08;;;;;;;3.17;1.40;;;11.50;99.90;;;;;;5095062;28;20169;-55
2022/05/29 06:40:34;;;;;;;1.02;0.90;;;11.50;99.90;;;;;;5113263;28;20172;-54
2022/05/29 06:43:00;;;;;;;1.33;0.63;;;11.60;99.90;;;;;;5113179;28;20264;-55
2022/05/29 06:45:26;;;;;;;0.70;0.70;;;11.50;99.90;;;;;;5113137;28;20167;-55
2022/05/29 06:47:52;;;;;;;0.90;0.77;;;11.60;99.90;;;;;;5111550;28;20610;-56
2022/05/29 06:50:18;;;;;;;1.95;0.80;;;11.80;99.90;;;;;;5108922;28;20514;-56
2022/05/29 06:52:44;;;;;;;0.65;0.65;;;11.90;99.90;;;;;;5092377;28;20213;-56
2022/05/29 06:55:10;;;;;;;1.08;0.70;;;12.10;99.90;;;;;;5110492;28;20503;-56
2022/05/29 06:57:43;;;;;;;0.65;0.65;;;12.30;99.90;;;;;;5112412;28;20211;-58
2022/05/29 07:08:36;;;;;;;0.70;0.70;;;12.70;99.90;;;;;;5116780;28;20180;-55
2022/05/29 07:11:09;;;;;;;0.65;0.65;;;12.80;99.90;;;;;;5116743;28;20574;-57
2022/05/29 07:13:35;;;;;;;1.35;0.50;;;12.70;99.90;;;;;;5116582;28;20166;-57
2022/05/29 07:16:01;;;;;;;1.67;0.70;;;12.80;99.90;;;;;;5115339;28;20189;-56
2022/05/29 07:18:29;;;;;;;0.80;0.55;;;12.90;99.90;;;;;;5115490;28;20631;-56
2022/05/29 07:20:57;;;;;;;0.73;0.60;;;12.90;99.90;;;;;;5114478;28;20256;-55
2022/05/29 07:23:23;;;;;;;0.98;0.40;;;12.90;99.90;;;;;;5116310;28;20165;-57
2022/05/29 07:25:49;;;;;;;0.65;0.35;;;12.80;99.90;;;;;;5115390;28;20272;-59
2022/05/29 07:28:14;;;;;;;0.43;0.43;;;12.60;99.90;;;;;;5116570;28;20663;-59
2022/05/29 07:30:40;;;;;;;0.40;0.40;;;12.60;99.90;;;;;;5116537;28;20170;-57
2022/05/29 07:33:06;;;;;;;0.28;0.20;;;12.50;99.90;;;;;;5116337;28;20731;-57
2022/05/29 07:35:32;;;;;;;1.25;0.35;;;12.30;99.90;;;;;;5116230;28;20252;-57
2022/05/29 07:37:57;;;;;;;0.40;0.30;;;12.30;99.90;;;;;;5116576;28;20223;-57
2022/05/29 07:40:24;;;;;;;0.40;0.30;;;12.20;99.90;;;;;;5116655;28;20629;-56
2022/05/29 07:45:34;;;;;;;0.47;0.40;;;12.20;99.90;;;;;;5116593;28;20207;-57
2022/05/29 07:48:00;;;;;;;0.50;0.40;;;12.30;99.90;;;;;;5114839;28;20177;-57
2022/05/29 07:50:26;;;;;;;0.50;0.50;;;12.50;99.90;;;;;;5116335;28;20180;-58
2022/05/29 07:52:54;;;;;;;0.60;0.60;;;12.80;99.90;;;;;;5114910;28;20199;-58
2022/05/29 07:55:21;;;;;;;0.88;0.60;;;12.90;99.90;;;;;;5116124;28;20173;-57
2022/05/29 07:57:47;;;;;;;0.60;0.60;;;13.20;99.90;;;;;;5116070;28;20193;-58
2022/05/29 08:00:16;;;;;;;0.35;0.30;;;13.40;99.90;;;;;;5114825;28;20177;-58
2022/05/29 08:02:42;;;;;;;0.50;0.40;;;13.80;99.90;;;;;;5115572;28;20177;-58
2022/05/29 08:05:10;;;;;;;0.30;0.30;;;14.30;99.90;;;;;;5115803;28;20177;-58
2022/05/29 08:07:37;;;;;;;0.50;0.40;;;14.40;99.90;;;;;;5115568;28;20680;-57
2022/05/29 08:10:04;;;;;;;0.40;0.30;;;14.50;99.90;;;;;;5115775;28;20165;-58
2022/05/29 08:12:29;;;;;;;0.35;0.35;;;14.80;99.90;;;;;;5115685;28;20200;-58
2022/05/29 08:14:55;;;;;;;0.40;0.40;;;15.30;99.90;;;;;;5114436;28;20542;-58
2022/05/29 08:17:21;;;;;;;0.85;0.43;;;15.30;99.90;;;;;;5114544;28;20173;-58
2022/05/29 08:19:46;;;;;;;0.77;0.40;;;15.10;99.90;;;;;;5115652;28;20177;-57
2022/05/29 08:22:12;;;;;;;0.38;0.38;;;15.00;99.90;;;;;;5115227;28;20189;-58
2022/05/29 08:30:41;;;;;;;0.80;0.52;;;14.80;99.90;;;;;;5115673;28;20542;-58
2022/05/29 08:33:16;;;;;;;0.32;0.20;;;14.40;99.90;;;;;;5114550;28;20201;-58
2022/05/29 08:35:46;;;;;;;1.15;0.50;;;14.10;99.90;;;;;;5114509;28;20208;-57
2022/05/29 08:38:14;;;;;;;0.63;0.40;;;13.70;99.90;;;;;;5113493;28;20173;-57
2022/05/29 08:40:50;;;;;;;0.80;0.30;;;13.60;99.90;;;;;;5114699;28;20186;-58
2022/05/29 08:43:35;;;;;;;0.38;0.38;;;13.60;99.90;;;;;;5113438;28;20164;-58
2022/05/29 08:46:14;;;;;;;0.80;0.77;;;13.70;99.90;;;;;;5115017;28;20166;-58
2022/05/29 08:48:39;;;;;;;0.65;0.40;;;13.80;99.90;;;;;;5115017;28;20217;-57
2022/05/29 08:51:14;;;;;;;0.88;0.50;;;13.80;99.90;;;;;;5114820;28;20581;-58
2022/05/29 08:54:14;;;;;;;1.05;0.50;;;13.70;99.90;;;;;;5114657;28;20208;-58
2022/05/29 08:57:03;;;;;;;0.65;0.45;;;13.80;99.90;;;;;;5109923;28;20273;-58
2022/05/29 08:59:45;;;;;;;1.05;0.47;;;13.90;99.90;;;;;;5106776;28;20185;-58
2022/05/29 09:02:35;;;;;;;0.50;0.45;;;14.10;99.90;;;;;;5115185;28;20642;-58
2022/05/29 09:05:18;;;;;;;0.93;0.35;;;14.50;99.90;;;;;;5114621;28;20634;-58
2022/05/29 09:07:46;;;;;;;1.33;0.75;;;14.90;99.90;;;;;;5114449;28;20188;-58
2022/05/29 09:10:17;;;;;;;0.52;0.30;;;15.10;99.90;;;;;;5114592;28;20162;-58
2022/05/29 09:12:53;;;;;;;0.50;0.50;;;15.10;99.90;;;;;;5112980;28;20340;-58
2022/05/29 09:15:37;;;;;;;0.65;0.30;;;14.40;99.90;;;;;;5114404;28;20161;-58
2022/05/29 09:18:29;;;;;;;0.52;0.43;;;14.00;99.90;;;;;;5114303;28;20653;-58
2022/05/29 09:21:03;;;;;;;1.50;0.43;;;13.90;99.90;;;;;;5114442;28;20249;-58
2022/05/29 09:23:44;;;;;;;0.30;0.30;;;13.60;99.90;;;;;;5114298;28;20626;-58
2022/05/29 09:26:18;;;;;;;0.60;0.32;;;13.60;99.90;;;;;;5114581;28;20517;-58
2022/05/29 09:28:44;;;;;;;1.00;0.30;;;13.60;99.90;;;;;;5113949;28;20264;-58
2022/05/29 09:31:20;;;;;;;0.65;0.30;;;13.50;99.90;;;;;;5114260;28;20290;-57
2022/05/29 09:33:47;;;;;;;0.60;0.30;;;13.50;99.90;;;;;;5114276;28;20683;-57
2022/05/29 09:36:28;;;;;;;0.77;0.50;;;13.30;99.90;;;;;;5113886;28;20196;-57
2022/05/29 09:39:01;;;;;;;0.57;0.40;;;13.20;99.90;;;;;;5114159;28;20184;-55
2022/05/29 09:41:34;;;;;;;1.65;0.60;;;12.80;99.90;;;;;;5113951;28;20883;-53
2022/05/29 09:44:05;;;;;;;0.40;0.40;;;12.80;99.90;;;;;;5108445;28;20172;-54
2022/05/29 09:46:33;;;;;;;1.98;0.73;;;13.00;99.90;;;;;;5112653;28;20165;-54
2022/05/29 09:52:06;;;;;;;0.60;0.60;;;13.30;99.90;;;;;;5113493;28;20228;-51
2022/05/29 09:54:38;;;;;;;0.98;0.50;;;13.60;99.90;;;;;;5112407;28;20165;-54
2022/05/29 09:57:22;;;;;;;0.50;0.50;;;13.90;99.90;;;;;;5113681;28;20175;-53
2022/05/29 09:59:51;;;;;;;0.80;0.70;;;13.90;99.90;;;;;;5113938;28;20181;-57
2022/05/29 10:02:31;;;;;;;0.70;0.63;;;14.00;99.90;;;;;;5113787;28;20298;-54
2022/05/29 10:04:59;;;;;;;1.38;0.73;;;13.90;99.90;;;;;;5113807;28;20169;-55
2022/05/29 10:07:47;;;;;;;1.73;1.10;;;13.70;99.90;;;;;;5113996;28;20212;-54
2022/05/29 10:10:28;;;;;;;0.70;0.68;;;13.50;99.90;;;;;;5113878;28;20192;-50
2022/05/29 10:12:57;;;;;;;0.93;0.75;;;13.40;99.90;;;;;;5113687;28;20257;-53
2022/05/29 10:15:26;;;;;;;0.60;0.60;;;13.20;99.90;;;;;;5113624;28;20265;-55
2022/05/29 10:17:52;;;;;;;0.93;0.70;;;13.00;99.90;;;;;;5113389;28;20197;-52
2022/05/29 10:20:39;;;;;;;0.75;0.70;;;13.00;99.90;;;;;;5112444;28;20212;-50
2022/05/29 10:23:09;;;;;;;0.77;0.70;;;13.20;99.90;;;;;;5113568;28;20179;-52
2022/05/29 10:25:57;;;;;;;1.13;0.90;;;13.00;99.90;;;;;;5113327;28;20248;-56
2022/05/29 10:28:29;;;;;;;0.77;0.77;;;13.00;99.90;;;;;;5113097;28;20496;-53
2022/05/29 10:30:58;;;;;;;1.17;0.90;;;13.00;99.90;;;;;;5113238;28;20670;-54
2022/05/29 10:33:27;;;;;;;0.80;0.80;;;13.10;99.90;;;;;;5113435;28;20193;-54
2022/05/29 10:36:10;;;;;;;0.82;0.80;;;13.10;99.90;;;;;;5113466;28;20177;-53
2022/05/29 10:38:36;;;;;;;0.80;0.80;;;13.10;99.90;;;;;;5113430;28;20622;-53
2022/05/29 10:41:05;;;;;;;1.10;1.00;;;13.50;99.90;;;;;;5116547;28;20173;-54
2022/05/29 10:43:48;;;;;;;1.48;0.80;;;13.80;99.90;;;;;;5117484;27;20173;-54
2022/05/29 10:46:23;;;;;;;1.52;0.85;;;13.70;99.90;;;;;;5116104;28;20177;-54
2022/05/29 10:49:10;;;;;;;1.90;0.90;;;13.40;99.90;;;;;;5117359;28;20683;-52
2022/05/29 10:51:59;;;;;;;1.58;0.70;;;13.30;99.90;;;;;;5117384;28;20212;-53
2022/05/29 10:54:52;;;;;;;1.23;0.80;;;13.30;99.90;;;;;;5117427;28;20162;-54
2022/05/29 10:57:58;;;;;;;0.98;0.88;;;13.20;99.90;;;;;;5117105;28;20170;-52
2022/05/29 11:03:17;;;;;;;0.90;0.88;;;13.00;99.90;;;;;;5117089;28;20575;-53
2022/05/29 11:04:09;;;;;;;1.00;0.75;;;12.80;99.90;;;;;;5116850;28;20254;-52
2022/05/29 11:06:46;;;;;;;1.75;0.93;;;12.70;99.90;;;;;;5117004;28;20284;-53
2022/05/29 11:09:51;;;;;;;0.80;0.75;;;12.90;99.90;;;;;;5117063;28;20238;-54
2022/05/29 11:12:33;;;;;;;0.80;0.80;;;13.20;99.90;;;;;;5116769;28;20608;-54
2022/05/29 11:15:12;;;;;;;0.93;0.93;;;13.20;99.90;;;;;;5117013;28;20241;-52
2022/05/29 11:17:52;;;;;;;1.13;0.95;;;13.30;99.90;;;;;;5116937;28;20173;-53
2022/05/29 11:20:48;;;;;;;1.10;0.90;;;13.10;99.90;;;;;;5116691;28;20185;-54
2022/05/29 11:23:25;;;;;;;1.42;1.10;;;13.20;99.90;;;;;;5116766;28;20177;-53
2022/05/29 11:26:06;;;;;;;0.75;0.75;;;13.50;99.90;;;;;;5116933;28;20173;-53
2022/05/29 11:29:16;;;;;;;1.27;0.77;;;13.60;99.90;;;;;;5116499;28;20180;-52
2022/05/29 11:32:00;;;;;;;0.60;0.60;;;13.50;99.90;;;;;;5092263;28;20221;-54
2022/05/29 11:34:30;;;;;;;0.57;0.40;;;13.40;99.90;;;;;;5116695;28;20187;-53
2022/05/29 11:37:33;;;;;;;0.50;0.50;;;13.20;99.90;;;;;;5116669;27;20181;-54
2022/05/29 11:40:19;;;;;;;1.20;0.70;;;13.10;99.90;;;;;;5116413;28;20161;-52
2022/05/29 11:43:03;;;;;;;0.68;0.68;;;13.10;99.90;;;;;;5116293;27;20200;-54
2022/05/29 11:51:22;;;;;;;5.18;2.80;;;13.70;99.90;;;;;;5115525;28;20639;-58
2022/05/29 11:54:07;;;;;;;3.22;2.13;;;13.50;99.90;;;;;;5116068;28;20172;-53
2022/05/29 11:56:52;;;;;;;3.08;1.98;;;13.50;99.90;;;;;;5115935;28;20188;-52
2022/05/29 11:59:30;;;;;;;5.88;2.65;;;13.50;99.90;;;;;;5115840;28;20583;-50
2022/05/29 12:02:04;;;;;;;2.45;1.65;;;13.60;99.90;;;;;;5115909;28;20161;-53
2022/05/29 12:04:41;;;;;;;2.17;1.73;;;13.80;99.90;;;;;;5115964;28;20169;-51
2022/05/29 12:07:13;;;;;;;1.20;1.10;;;14.00;99.90;;;;;;5115765;28;20650;-52
2022/05/29 12:10:06;;;;;;;1.20;1.10;;;14.00;99.90;;;;;;5115836;28;20176;-53
2022/05/29 12:12:40;;;;;;;0.90;0.90;;;14.10;99.90;;;;;;5115601;28;20654;-53
2022/05/29 12:15:25;;;;;;;0.73;0.63;;;13.80;99.90;;;;;;5116017;28;20173;-53
2022/05/29 12:17:55;;;;;;;0.43;0.43;;;13.70;99.90;;;;;;5115707;28;20177;-53
2022/05/29 12:20:33;;;;;;;0.50;0.50;;;13.60;99.90;;;;;;5115644;28;20173;-50
2022/05/29 12:23:05;;;;;;;0.40;0.40;;;13.40;99.90;;;;;;5115466;28;20645;-53
2022/05/29 12:25:34;;;;;;;0.82;0.38;;;13.40;99.90;;;;;;5115742;28;20222;-54
2022/05/29 12:28:07;;;;;;;0.93;0.30;;;13.40;99.90;;;;;;5115829;28;20257;-52
2022/05/29 12:30:44;;;;;;;0.28;0.28;;;13.70;99.90;;;;;;5115554;28;20171;-51
2022/05/29 12:33:16;;;;;;;0.30;0.30;;;14.00;99.90;;;;;;5115205;28;20240;-53
2022/05/29 12:36:07;;;;;;;0.30;0.30;;;14.10;99.90;;;;;;5115552;28;20204;-54
2022/05/29 12:38:59;;;;;;;0.43;0.40;;;14.40;99.90;;;;;;5115302;28;20177;-54
2022/05/29 12:41:49;;;;;;;0.30;0.30;;;14.70;99.90;;;;;;5115258;28;20169;-52
2022/05/29 12:44:45;;;;;;;0.45;0.30;;;14.80;99.90;;;;;;5115229;28;20180;-54
2022/05/29 12:47:44;;;;;;;0.95;0.40;;;14.90;99.90;;;;;;5115084;28;20173;-53
2022/05/29 12:50:52;;;;;;;0.60;0.60;;;15.10;99.90;;;;;;5115220;28;20157;-54
2022/05/29 12:53:33;;;;;;;0.40;0.40;;;14.90;99.90;;;;;;5114974;28;20219;-53
2022/05/29 12:56:39;;;;;;;0.45;0.30;;;14.70;99.90;;;;;;5114974;28;20173;-53
2022/05/29 12:59:24;;;;;;;0.30;0.30;;;14.30;99.90;;;;;;5115256;28;20169;-51
2022/05/29 13:02:06;;;;;;;0.88;0.40;;;14.10;99.90;;;;;;5114271;28;20195;-51
2022/05/29 13:04:56;;;;;;;1.23;0.30;;;14.00;99.90;;;;;;5114654;28;20176;-50
2022/05/29 13:07:31;;;;;;;0.30;0.30;;;14.10;99.90;;;;;;5114566;28;20588;-53
2022/05/29 13:10:27;;;;;;;0.30;0.30;;;14.30;99.90;;;;;;5114640;28;20210;-52
2022/05/29 13:13:13;;;;;;;0.43;0.38;;;14.40;99.90;;;;;;5092397;28;20225;-53
2022/05/29 13:15:41;;;;;;;0.20;0.20;;;14.10;99.90;;;;;;5114639;28;20184;-50
2022/05/29 13:18:15;;;;;;;0.20;0.20;;;14.00;99.90;;;;;;5113315;28;20617;-53
2022/05/29 13:21:04;;;;;;;0.85;0.50;;;14.10;99.90;;;;;;5114706;28;20281;-54
2022/05/29 13:23:38;;;;;;;1.08;0.40;;;14.20;99.90;;;;;;5114631;28;20173;-53
2022/05/29 13:26:04;;;;;;;0.38;0.38;;;14.30;99.90;;;;;;5114611;28;20161;-54
2022/05/29 13:28:41;;;;;;;0.30;0.30;;;14.60;99.90;;;;;;5114378;28;20183;-54
2022/05/29 13:31:12;;;;;;;1.35;1.00;;;14.50;99.90;;;;;;5114165;28;20233;-54
2022/05/29 13:33:48;;;;;;;0.45;0.35;;;14.70;99.90;;;;;;5114222;28;20177;-54
2022/05/29 13:36:42;;;;;;;0.57;0.50;;;15.00;99.90;;;;;;5114410;28;20173;-54
2022/05/29 13:39:09;;;;;;;0.40;0.40;;;15.30;99.90;;;;;;5107928;28;20673;-53
2022/05/29 13:42:03;;;;;;;0.40;0.40;;;15.50;99.90;;;;;;5114071;28;20196;-54
2022/05/29 13:44:35;;;;;;;0.40;0.40;;;15.70;99.90;;;;;;5112356;28;20234;-54
2022/05/29 13:47:19;;;;;;;0.40;0.40;;;15.80;99.90;;;;;;5114221;28;20165;-54
2022/05/29 13:49:48;;;;;;;0.55;0.40;;;16.00;99.90;;;;;;5113965;28;20165;-55
2022/05/29 13:52:28;;;;;;;0.47;0.40;;;15.90;99.90;;;;;;5113791;28;20566;-54
2022/05/29 13:55:08;;;;;;;0.45;0.40;;;15.50;99.90;;;;;;5114081;28;20560;-54
2022/05/29 14:03:58;;;;;;;0.80;0.57;;;14.10;99.90;;;;;;5114143;28;20185;-50